sensor_id;sensor_type;location;lat;lon;timestamp;pressure;altitude;pressure_sealevel;temperature;humidity
71966;BME280;59836;52.132;5.442;2024-03-02T00:01:18;99810.13;;;8.52;88.62
71966;BME280;59836;52.132;5.442;2024-03-02T00:03:45;99807.13;;;8.54;88.02
71966;BME280;59836;52.132;5.442;2024-03-02T00:06:11;99801.72;;;8.54;88.13
71966;BME280;59836;52.132;5.442;2024-03-02T00:08:38;99793.34;;;8.55;88.02
71966;BME280;59836;52.132;5.442;2024-03-02T00:11:05;99797.16;;;8.54;88.45
71966;BME280;59836;52.132;5.442;2024-03-02T00:13:32;99808.47;;;8.56;88.82
71966;BME280;59836;52.132;5.442;2024-03-02T00:16:00;99812.81;;;8.57;88.38
71966;BME280;59836;52.132;5.442;2024-03-02T00:18:33;99823.63;;;8.57;88.27
71966;BME280;59836;52.132;5.442;2024-03-02T00:21:01;99825.22;;;8.59;88.93
71966;BME280;59836;52.132;5.442;2024-03-02T00:23:31;99834.94;;;8.60;88.49
71966;BME280;59836;52.132;5.442;2024-03-02T00:25:58;99836.56;;;8.61;88.71
71966;BME280;59836;52.132;5.442;2024-03-02T00:28:31;99844.66;;;8.61;88.79
71966;BME280;59836;52.132;5.442;2024-03-02T00:31:04;99857.38;;;8.60;88.88
71966;BME280;59836;52.132;5.442;2024-03-02T00:33:42;99860.88;;;8.61;89.08
71966;BME280;59836;52.132;5.442;2024-03-02T00:36:10;99877.09;;;8.61;89.24
71966;BME280;59836;52.132;5.442;2024-03-02T00:38:47;99883.31;;;8.61;88.63
71966;BME280;59836;52.132;5.442;2024-03-02T00:43:57;99890.63;;;8.61;89.17
71966;BME280;59836;52.132;5.442;2024-03-02T00:46:24;99908.72;;;8.60;89.41
71966;BME280;59836;52.132;5.442;2024-03-02T00:48:56;99916.81;;;8.60;89.49
71966;BME280;59836;52.132;5.442;2024-03-02T00:51:25;99927.94;;;8.59;90.61
71966;BME280;59836;52.132;5.442;2024-03-02T00:53:53;99922.00;;;8.56;90.39
71966;BME280;59836;52.132;5.442;2024-03-02T00:56:24;99908.75;;;8.55;91.02
71966;BME280;59836;52.132;5.442;2024-03-02T00:58:51;99909.31;;;8.52;91.64
71966;BME280;59836;52.132;5.442;2024-03-02T01:01:18;99916.91;;;8.45;92.31
71966;BME280;59836;52.132;5.442;2024-03-02T01:03:46;99924.47;;;8.42;93.37
71966;BME280;59836;52.132;5.442;2024-03-02T01:06:13;99915.84;;;8.40;93.56
71966;BME280;59836;52.132;5.442;2024-03-02T01:08:39;99923.69;;;8.37;93.90
71966;BME280;59836;52.132;5.442;2024-03-02T01:11:06;99923.16;;;8.35;94.38
71966;BME280;59836;52.132;5.442;2024-03-02T01:13:33;99922.91;;;8.31;94.83
71966;BME280;59836;52.132;5.442;2024-03-02T01:16:00;99936.69;;;8.30;95.28
71966;BME280;59836;52.132;5.442;2024-03-02T01:18:26;99930.22;;;8.25;95.64
71966;BME280;59836;52.132;5.442;2024-03-02T01:20:53;99930.22;;;8.25;95.72
71966;BME280;59836;52.132;5.442;2024-03-02T01:23:23;99911.63;;;8.19;96.29
71966;BME280;59836;52.132;5.442;2024-03-02T01:25:50;99923.22;;;8.14;97.43
71966;BME280;59836;52.132;5.442;2024-03-02T01:28:18;99928.63;;;8.14;98.42
71966;BME280;59836;52.132;5.442;2024-03-02T01:30:48;99936.19;;;8.12;98.50
71966;BME280;59836;52.132;5.442;2024-03-02T01:33:16;99938.38;;;8.10;98.33
71966;BME280;59836;52.132;5.442;2024-03-02T01:35:44;99944.84;;;8.09;98.58
71966;BME280;59836;52.132;5.442;2024-03-02T01:38:10;99932.97;;;8.05;99.05
71966;BME280;59836;52.132;5.442;2024-03-02T01:40:37;99943.53;;;8.06;98.65
71966;BME280;59836;52.132;5.442;2024-03-02T01:43:05;99934.88;;;8.04;99.28
71966;BME280;59836;52.132;5.442;2024-03-02T01:45:32;99926.50;;;8.06;99.85
71966;BME280;59836;52.132;5.442;2024-03-02T01:47:58;99942.69;;;8.06;99.65
71966;BME280;59836;52.132;5.442;2024-03-02T01:50:31;99940.00;;;8.01;100.00
71966;BME280;59836;52.132;5.442;2024-03-02T01:52:58;99935.69;;;8.00;100.00
71966;BME280;59836;52.132;5.442;2024-03-02T01:55:25;99942.19;;;7.98;100.00
71966;BME280;59836;52.132;5.442;2024-03-02T01:57:52;99937.06;;;8.02;100.00
71966;BME280;59836;52.132;5.442;2024-03-02T02:00:19;99943.53;;;8.01;100.00
71966;BME280;59836;52.132;5.442;2024-03-02T02:02:47;99938.94;;;7.96;100.00
71966;BME280;59836;52.132;5.442;2024-03-02T02:05:14;99933.53;;;7.96;100.00
71966;BME280;59836;52.132;5.442;2024-03-02T02:07:41;99944.34;;;7.96;100.00
71966;BME280;59836;52.132;5.442;2024-03-02T02:10:10;99934.13;;;7.93;100.00
71966;BME280;59836;52.132;5.442;2024-03-02T02:12:37;99938.69;;;7.93;100.00
71966;BME280;59836;52.132;5.442;2024-03-02T02:15:21;99943.31;;;7.92;100.00
71966;BME280;59836;52.132;5.442;2024-03-02T02:17:47;99954.91;;;7.93;100.00
71966;BME280;59836;52.132;5.442;2024-03-02T02:20:14;99945.47;;;7.90;100.00
71966;BME280;59836;52.132;5.442;2024-03-02T02:22:40;99945.47;;;7.85;100.00
71966;BME280;59836;52.132;5.442;2024-03-02T02:25:07;99947.34;;;7.85;100.00
71966;BME280;59836;52.132;5.442;2024-03-02T02:27:33;99942.78;;;7.80;100.00
71966;BME280;59836;52.132;5.442;2024-03-02T02:30:00;99935.25;;;7.77;100.00
71966;BME280;59836;52.132;5.442;2024-03-02T02:32:27;99929.84;;;7.77;100.00
71966;BME280;59836;52.132;5.442;2024-03-02T02:34:53;99927.16;;;7.77;100.00
71966;BME280;59836;52.132;5.442;2024-03-02T02:37:20;99933.63;;;7.76;100.00
71966;BME280;59836;52.132;5.442;2024-03-02T02:39:46;99942.81;;;7.75;100.00
71966;BME280;59836;52.132;5.442;2024-03-02T02:42:13;99942.25;;;7.73;100.00
71966;BME280;59836;52.132;5.442;2024-03-02T02:44:39;99960.63;;;7.71;100.00
71966;BME280;59836;52.132;5.442;2024-03-02T02:47:06;99959.00;;;7.70;100.00
71966;BME280;59836;52.132;5.442;2024-03-02T02:49:33;99939.81;;;7.71;100.00
71966;BME280;59836;52.132;5.442;2024-03-02T02:51:59;99950.38;;;7.67;100.00
71966;BME280;59836;52.132;5.442;2024-03-02T02:54:26;99952.25;;;7.67;100.00
71966;BME280;59836;52.132;5.442;2024-03-02T02:56:52;99951.16;;;7.63;100.00
71966;BME280;59836;52.132;5.442;2024-03-02T02:59:19;99957.66;;;7.57;100.00
71966;BME280;59836;52.132;5.442;2024-03-02T03:01:45;99961.97;;;7.52;100.00
71966;BME280;59836;52.132;5.442;2024-03-02T03:04:12;99957.94;;;7.50;100.00
71966;BME280;59836;52.132;5.442;2024-03-02T03:06:39;99960.09;;;7.53;100.00
71966;BME280;59836;52.132;5.442;2024-03-02T03:09:05;99962.78;;;7.53;100.00
71966;BME280;59836;52.132;5.442;2024-03-02T03:11:32;99952.53;;;7.50;100.00
71966;BME280;59836;52.132;5.442;2024-03-02T03:13:58;99956.31;;;7.49;100.00
71966;BME280;59836;52.132;5.442;2024-03-02T03:16:26;99957.41;;;7.48;100.00
71966;BME280;59836;52.132;5.442;2024-03-02T03:18:53;99951.47;;;7.46;100.00
71966;BME280;59836;52.132;5.442;2024-03-02T03:21:20;99947.69;;;7.47;100.00
71966;BME280;59836;52.132;5.442;2024-03-02T03:23:46;99949.84;;;7.45;100.00
71966;BME280;59836;52.132;5.442;2024-03-02T03:26:13;99954.41;;;7.44;100.00
71966;BME280;59836;52.132;5.442;2024-03-02T03:28:39;99958.47;;;7.47;100.00
71966;BME280;59836;52.132;5.442;2024-03-02T03:31:05;99961.19;;;7.47;100.00
71966;BME280;59836;52.132;5.442;2024-03-02T03:33:32;99965.50;;;7.48;100.00
71966;BME280;59836;52.132;5.442;2024-03-02T03:35:59;99969.28;;;7.47;100.00
71966;BME280;59836;52.132;5.442;2024-03-02T03:38:25;99969.28;;;7.47;100.00
71966;BME280;59836;52.132;5.442;2024-03-02T03:40:52;99978.97;;;7.43;100.00
71966;BME280;59836;52.132;5.442;2024-03-02T03:43:18;99970.34;;;7.41;100.00
71966;BME280;59836;52.132;5.442;2024-03-02T03:45:45;99971.97;;;7.42;100.00
71966;BME280;59836;52.132;5.442;2024-03-02T03:48:11;99973.59;;;7.43;100.00
71966;BME280;59836;52.132;5.442;2024-03-02T03:50:38;99971.44;;;7.45;100.00
71966;BME280;59836;52.132;5.442;2024-03-02T03:53:04;99983.84;;;7.46;100.00
71966;BME280;59836;52.132;5.442;2024-03-02T03:55:31;99987.06;;;7.48;100.00
71966;BME280;59836;52.132;5.442;2024-03-02T03:57:57;99983.00;;;7.45;100.00
71966;BME280;59836;52.132;5.442;2024-03-02T04:00:24;99979.53;;;7.45;100.00
71966;BME280;59836;52.132;5.442;2024-03-02T04:02:50;99979.78;;;7.43;100.00
71966;BME280;59836;52.132;5.442;2024-03-02T04:05:17;99973.59;;;7.43;100.00
71966;BME280;59836;52.132;5.442;2024-03-02T04:07:43;99973.03;;;7.41;100.00
71966;BME280;59836;52.132;5.442;2024-03-02T04:10:10;99987.06;;;7.43;100.00
71966;BME280;59836;52.132;5.442;2024-03-02T04:12:37;99984.38;;;7.43;100.00
71966;BME280;59836;52.132;5.442;2024-03-02T04:15:05;99984.66;;;7.41;100.00
71966;BME280;59836;52.132;5.442;2024-03-02T04:17:33;99992.22;;;7.39;100.00
71966;BME280;59836;52.132;5.442;2024-03-02T04:20:00;99995.72;;;7.39;100.00
71966;BME280;59836;52.132;5.442;2024-03-02T04:22:27;99993.56;;;7.42;100.00
71966;BME280;59836;52.132;5.442;2024-03-02T04:24:54;99998.41;;;7.45;100.00
71966;BME280;59836;52.132;5.442;2024-03-02T04:27:21;99995.44;;;7.46;100.00
71966;BME280;59836;52.132;5.442;2024-03-02T04:29:47;100000.56;;;7.43;100.00
71966;BME280;59836;52.132;5.442;2024-03-02T04:32:14;99990.84;;;7.42;100.00
71966;BME280;59836;52.132;5.442;2024-03-02T04:34:40;100006.50;;;7.45;100.00
71966;BME280;59836;52.132;5.442;2024-03-02T04:37:07;100008.13;;;7.46;100.00
71966;BME280;59836;52.132;5.442;2024-03-02T04:39:35;100001.09;;;7.45;100.00
71966;BME280;59836;52.132;5.442;2024-03-02T04:42:02;100010.81;;;7.46;100.00
71966;BME280;59836;52.132;5.442;2024-03-02T04:44:29;100010.00;;;7.45;100.00
71966;BME280;59836;52.132;5.442;2024-03-02T04:46:55;100014.59;;;7.45;100.00
71966;BME280;59836;52.132;5.442;2024-03-02T04:49:22;100010.81;;;7.46;100.00
71966;BME280;59836;52.132;5.442;2024-03-02T04:51:48;100014.06;;;7.48;100.00
71966;BME280;59836;52.132;5.442;2024-03-02T04:54:15;100024.03;;;7.47;100.00
71966;BME280;59836;52.132;5.442;2024-03-02T04:56:42;100025.94;;;7.47;100.00
71966;BME280;59836;52.132;5.442;2024-03-02T04:59:16;100025.94;;;7.47;100.00
71966;BME280;59836;52.132;5.442;2024-03-02T05:01:43;100030.50;;;7.46;100.00
71966;BME280;59836;52.132;5.442;2024-03-02T05:04:10;100027.00;;;7.46;100.00
71966;BME280;59836;52.132;5.442;2024-03-02T05:06:40;100040.50;;;7.46;100.00
71966;BME280;59836;52.132;5.442;2024-03-02T05:09:08;100035.34;;;7.44;100.00
71966;BME280;59836;52.132;5.442;2024-03-02T05:11:35;100034.56;;;7.44;100.00
71966;BME280;59836;52.132;5.442;2024-03-02T05:14:05;100033.22;;;7.41;100.00
71966;BME280;59836;52.132;5.442;2024-03-02T05:16:33;100030.53;;;7.41;100.00
71966;BME280;59836;52.132;5.442;2024-03-02T05:19:00;100034.31;;;7.40;100.00
71966;BME280;59836;52.132;5.442;2024-03-02T05:21:27;100029.69;;;7.41;100.00
71966;BME280;59836;52.132;5.442;2024-03-02T05:23:53;100042.09;;;7.42;100.00
71966;BME280;59836;52.132;5.442;2024-03-02T05:26:20;100035.91;;;7.41;100.00
71966;BME280;59836;52.132;5.442;2024-03-02T05:28:46;100036.16;;;7.39;100.00
71966;BME280;59836;52.132;5.442;2024-03-02T05:31:16;100031.31;;;7.42;100.00
71966;BME280;59836;52.132;5.442;2024-03-02T05:33:43;100040.50;;;7.41;100.00
71966;BME280;59836;52.132;5.442;2024-03-02T05:36:10;100042.38;;;7.40;100.00
71966;BME280;59836;52.132;5.442;2024-03-02T05:38:37;100034.84;;;7.37;100.00
71966;BME280;59836;52.132;5.442;2024-03-02T05:41:03;100044.78;;;7.36;100.00
71966;BME280;59836;52.132;5.442;2024-03-02T05:43:31;100042.09;;;7.36;100.00
71966;BME280;59836;52.132;5.442;2024-03-02T05:45:57;100037.78;;;7.35;99.94
71966;BME280;59836;52.132;5.442;2024-03-02T05:48:24;100040.47;;;7.35;99.89
71966;BME280;59836;52.132;5.442;2024-03-02T05:50:50;100050.72;;;7.33;99.08
71966;BME280;59836;52.132;5.442;2024-03-02T05:53:17;100043.72;;;7.32;98.74
71966;BME280;59836;52.132;5.442;2024-03-02T05:55:43;100042.91;;;7.32;98.47
71966;BME280;59836;52.132;5.442;2024-03-02T05:58:11;100053.41;;;7.28;98.41
71966;BME280;59836;52.132;5.442;2024-03-02T06:00:52;100058.28;;;7.31;97.94
71966;BME280;59836;52.132;5.442;2024-03-02T06:03:19;100061.25;;;7.30;97.94
71966;BME280;59836;52.132;5.442;2024-03-02T06:05:45;100065.56;;;7.31;97.70
71966;BME280;59836;52.132;5.442;2024-03-02T06:08:12;100065.81;;;7.29;97.60
71966;BME280;59836;52.132;5.442;2024-03-02T06:10:38;100064.75;;;7.30;97.98
71966;BME280;59836;52.132;5.442;2024-03-02T06:13:05;100073.91;;;7.29;98.07
71966;BME280;59836;52.132;5.442;2024-03-02T06:15:31;100075.28;;;7.27;98.18
71966;BME280;59836;52.132;5.442;2024-03-02T06:17:58;100078.78;;;7.27;98.12
71966;BME280;59836;52.132;5.442;2024-03-02T06:20:25;100074.44;;;7.26;98.54
71966;BME280;59836;52.132;5.442;2024-03-02T06:22:53;100084.16;;;7.27;98.90
71966;BME280;59836;52.132;5.442;2024-03-02T06:25:19;100080.91;;;7.25;98.81
71966;BME280;59836;52.132;5.442;2024-03-02T06:27:45;100087.13;;;7.26;98.96
71966;BME280;59836;52.132;5.442;2024-03-02T06:30:12;100087.13;;;7.26;99.20
71966;BME280;59836;52.132;5.442;2024-03-02T06:32:39;100085.25;;;7.26;99.60
71966;BME280;59836;52.132;5.442;2024-03-02T06:35:06;100086.84;;;7.22;99.67
71966;BME280;59836;52.132;5.442;2024-03-02T06:37:37;100093.84;;;7.23;99.24
71966;BME280;59836;52.132;5.442;2024-03-02T06:40:05;100101.41;;;7.21;99.51
71966;BME280;59836;52.132;5.442;2024-03-02T06:42:34;100107.06;;;7.19;99.53
71966;BME280;59836;52.132;5.442;2024-03-02T06:45:02;100104.38;;;7.19;99.75
71966;BME280;59836;52.132;5.442;2024-03-02T06:47:28;100108.94;;;7.19;99.80
71966;BME280;59836;52.132;5.442;2024-03-02T06:49:55;100110.31;;;7.16;99.57
71966;BME280;59836;52.132;5.442;2024-03-02T06:52:23;100102.47;;;7.15;99.61
71966;BME280;59836;52.132;5.442;2024-03-02T06:54:50;100097.06;;;7.15;99.04
71966;BME280;59836;52.132;5.442;2024-03-02T06:57:17;100104.09;;;7.16;99.28
71966;BME280;59836;52.132;5.442;2024-03-02T06:59:43;100101.94;;;7.18;99.32
71966;BME280;59836;52.132;5.442;2024-03-02T07:02:10;100096.84;;;7.21;98.88
71966;BME280;59836;52.132;5.442;2024-03-02T07:04:37;100090.06;;;7.19;99.56
71966;BME280;59836;52.132;5.442;2024-03-02T07:07:03;100099.78;;;7.20;99.03
71966;BME280;59836;52.132;5.442;2024-03-02T07:09:30;100086.06;;;7.21;99.23
71966;BME280;59836;52.132;5.442;2024-03-02T07:11:56;100105.47;;;7.23;99.11
71966;BME280;59836;52.132;5.442;2024-03-02T07:14:23;100100.63;;;7.26;99.40
71966;BME280;59836;52.132;5.442;2024-03-02T07:17:09;100101.97;;;7.28;98.77
71966;BME280;59836;52.132;5.442;2024-03-02T07:19:38;100099.81;;;7.30;98.64
71966;BME280;59836;52.132;5.442;2024-03-02T07:22:07;100104.13;;;7.31;99.02
71966;BME280;59836;52.132;5.442;2024-03-02T07:24:43;100104.69;;;7.33;98.85
71966;BME280;59836;52.132;5.442;2024-03-02T07:27:12;100100.91;;;7.34;99.07
71966;BME280;59836;52.132;5.442;2024-03-02T07:29:39;100100.91;;;7.34;98.87
71966;BME280;59836;52.132;5.442;2024-03-02T07:32:08;100103.34;;;7.36;98.47
71966;BME280;59836;52.132;5.442;2024-03-02T07:34:36;100110.09;;;7.38;98.34
71966;BME280;59836;52.132;5.442;2024-03-02T07:37:04;100107.66;;;7.42;98.51
71966;BME280;59836;52.132;5.442;2024-03-02T07:39:30;100116.59;;;7.48;98.95
71966;BME280;59836;52.132;5.442;2024-03-02T07:41:57;100120.91;;;7.54;98.14
71966;BME280;59836;52.132;5.442;2024-03-02T07:44:24;100122.53;;;7.55;97.93
71966;BME280;59836;52.132;5.442;2024-03-02T07:46:50;100112.28;;;7.62;97.93
71966;BME280;59836;52.132;5.442;2024-03-02T07:49:18;100124.19;;;7.66;97.41
71966;BME280;59836;52.132;5.442;2024-03-02T07:51:45;100133.06;;;7.72;97.72
71966;BME280;59836;52.132;5.442;2024-03-02T07:54:11;100127.97;;;7.76;97.39
71966;BME280;59836;52.132;5.442;2024-03-02T07:56:38;100125.28;;;7.81;97.38
71966;BME280;59836;52.132;5.442;2024-03-02T07:59:05;100130.38;;;7.82;96.67
71966;BME280;59836;52.132;5.442;2024-03-02T08:01:32;100132.81;;;7.79;97.08
71966;BME280;59836;52.132;5.442;2024-03-02T08:04:02;100131.75;;;7.80;96.79
71966;BME280;59836;52.132;5.442;2024-03-02T08:06:31;100140.94;;;7.79;96.98
71966;BME280;59836;52.132;5.442;2024-03-02T08:08:59;100137.13;;;7.75;96.67
71966;BME280;59836;52.132;5.442;2024-03-02T08:11:27;100144.97;;;7.76;96.65
71966;BME280;59836;52.132;5.442;2024-03-02T08:13:53;100150.09;;;7.73;96.74
71966;BME280;59836;52.132;5.442;2024-03-02T08:16:23;100151.19;;;7.77;96.86
71966;BME280;59836;52.132;5.442;2024-03-02T08:18:50;100152.81;;;7.78;96.70
71966;BME280;59836;52.132;5.442;2024-03-02T08:21:17;100149.03;;;7.79;96.66
71966;BME280;59836;52.132;5.442;2024-03-02T08:23:43;100153.88;;;7.82;96.60
71966;BME280;59836;52.132;5.442;2024-03-02T08:26:10;100150.38;;;7.87;96.58
71966;BME280;59836;52.132;5.442;2024-03-02T08:28:38;100148.50;;;7.92;96.94
71966;BME280;59836;52.132;5.442;2024-03-02T08:31:09;100146.06;;;8.01;96.85
71966;BME280;59836;52.132;5.442;2024-03-02T08:33:36;100149.03;;;8.10;96.34
71966;BME280;59836;52.132;5.442;2024-03-02T08:36:04;100141.47;;;8.22;96.19
71966;BME280;59836;52.132;5.442;2024-03-02T08:38:31;100143.38;;;8.32;95.79
71966;BME280;59836;52.132;5.442;2024-03-02T08:40:58;100146.31;;;8.41;95.41
71966;BME280;59836;52.132;5.442;2024-03-02T08:43:25;100149.53;;;8.48;94.61
71966;BME280;59836;52.132;5.442;2024-03-02T08:45:51;100147.94;;;8.47;94.08
71966;BME280;59836;52.132;5.442;2024-03-02T08:48:18;100150.13;;;8.50;94.14
71966;BME280;59836;52.132;5.442;2024-03-02T08:50:46;100156.84;;;8.53;93.70
71966;BME280;59836;52.132;5.442;2024-03-02T08:53:13;100149.56;;;8.59;94.08
71966;BME280;59836;52.132;5.442;2024-03-02T08:55:39;100140.34;;;8.65;93.50
71966;BME280;59836;52.132;5.442;2024-03-02T08:58:06;100148.72;;;8.68;93.46
71966;BME280;59836;52.132;5.442;2024-03-02T09:00:33;100139.53;;;8.69;93.15
71966;BME280;59836;52.132;5.442;2024-03-02T09:03:00;100144.69;;;8.66;92.17
71966;BME280;59836;52.132;5.442;2024-03-02T09:05:26;100147.91;;;8.68;92.22
71966;BME280;59836;52.132;5.442;2024-03-02T09:07:53;100148.16;;;8.71;91.65
71966;BME280;59836;52.132;5.442;2024-03-02T09:10:19;100140.88;;;8.77;92.14
71966;BME280;59836;52.132;5.442;2024-03-02T09:12:46;100149.50;;;8.79;91.80
71966;BME280;59836;52.132;5.442;2024-03-02T09:15:13;100150.31;;;8.80;91.05
71966;BME280;59836;52.132;5.442;2024-03-02T09:17:39;100143.81;;;8.86;91.78
71966;BME280;59836;52.132;5.442;2024-03-02T09:20:07;100151.09;;;8.91;90.67
71966;BME280;59836;52.132;5.442;2024-03-02T09:22:33;100151.34;;;8.94;90.44
71966;BME280;59836;52.132;5.442;2024-03-02T09:25:00;100145.63;;;9.01;90.70
71966;BME280;59836;52.132;5.442;2024-03-02T09:27:27;100149.16;;;9.07;89.56
71966;BME280;59836;52.132;5.442;2024-03-02T09:29:53;100151.84;;;9.12;89.44
71966;BME280;59836;52.132;5.442;2024-03-02T09:32:19;100152.63;;;9.12;89.24
71966;BME280;59836;52.132;5.442;2024-03-02T09:34:46;100149.09;;;9.17;89.31
71966;BME280;59836;52.132;5.442;2024-03-02T09:37:14;100150.16;;;9.21;88.67
71966;BME280;59836;52.132;5.442;2024-03-02T09:39:43;100152.03;;;9.26;87.66
71966;BME280;59836;52.132;5.442;2024-03-02T09:42:10;100147.69;;;9.30;88.14
71966;BME280;59836;52.132;5.442;2024-03-02T09:44:37;100162.00;;;9.36;88.08
71966;BME280;59836;52.132;5.442;2024-03-02T09:47:04;100170.38;;;9.39;87.02
71966;BME280;59836;52.132;5.442;2024-03-02T09:49:32;100160.06;;;9.41;87.20
71966;BME280;59836;52.132;5.442;2024-03-02T09:51:58;100160.91;;;9.42;85.21
71966;BME280;59836;52.132;5.442;2024-03-02T09:54:25;100167.66;;;9.39;84.20
71966;BME280;59836;52.132;5.442;2024-03-02T09:56:52;100159.00;;;9.37;83.92
71966;BME280;59836;52.132;5.442;2024-03-02T09:59:18;100157.41;;;9.36;83.72
71966;BME280;59836;52.132;5.442;2024-03-02T10:02:00;100175.25;;;9.37;83.07
71966;BME280;59836;52.132;5.442;2024-03-02T10:04:28;100168.22;;;9.36;81.09
71966;BME280;59836;52.132;5.442;2024-03-02T10:09:41;100161.69;;;9.42;82.00
71966;BME280;59836;52.132;5.442;2024-03-02T10:12:09;100159.78;;;9.48;82.37
71966;BME280;59836;52.132;5.442;2024-03-02T10:14:38;100163.81;;;9.51;81.79
71966;BME280;59836;52.132;5.442;2024-03-02T10:17:13;100161.66;;;9.53;80.86
71966;BME280;59836;52.132;5.442;2024-03-02T10:19:41;100167.88;;;9.53;81.55
71966;BME280;59836;52.132;5.442;2024-03-02T10:22:09;100157.28;;;9.57;81.87
71966;BME280;59836;52.132;5.442;2024-03-02T10:24:43;100156.19;;;9.58;81.32
71966;BME280;59836;52.132;5.442;2024-03-02T10:27:19;100156.72;;;9.60;81.04
71966;BME280;59836;52.132;5.442;2024-03-02T10:29:49;100159.41;;;9.65;81.47
71966;BME280;59836;52.132;5.442;2024-03-02T10:32:16;100151.28;;;9.65;80.40
71966;BME280;59836;52.132;5.442;2024-03-02T10:34:45;100160.19;;;9.66;80.93
71966;BME280;59836;52.132;5.442;2024-03-02T10:37:12;100149.09;;;9.67;80.66
71966;BME280;59836;52.132;5.442;2024-03-02T10:39:40;100142.03;;;9.71;81.45
71966;BME280;59836;52.132;5.442;2024-03-02T10:42:07;100145.25;;;9.79;81.30
71966;BME280;59836;52.132;5.442;2024-03-02T10:44:34;100151.97;;;9.81;80.46
71966;BME280;59836;52.132;5.442;2024-03-02T10:47:03;100133.81;;;9.87;80.69
71966;BME280;59836;52.132;5.442;2024-03-02T10:49:32;100131.06;;;9.92;80.58
71966;BME280;59836;52.132;5.442;2024-03-02T10:51:59;100123.13;;;10.01;79.99
71966;BME280;59836;52.132;5.442;2024-03-02T10:54:26;100120.59;;;10.10;80.84
71966;BME280;59836;52.132;5.442;2024-03-02T10:56:58;100120.50;;;10.20;79.70
71966;BME280;59836;52.132;5.442;2024-03-02T10:59:37;100119.16;;;10.23;78.78
71966;BME280;59836;52.132;5.442;2024-03-02T11:02:12;100117.75;;;10.25;78.12
71966;BME280;59836;52.132;5.442;2024-03-02T11:04:40;100116.16;;;10.24;77.72
71966;BME280;59836;52.132;5.442;2024-03-02T11:07:09;100120.19;;;10.27;78.38
71966;BME280;59836;52.132;5.442;2024-03-02T11:09:41;100122.59;;;10.28;77.23
71966;BME280;59836;52.132;5.442;2024-03-02T11:14:55;100121.47;;;10.34;77.01
71966;BME280;59836;52.132;5.442;2024-03-02T11:17:23;100121.72;;;10.38;75.89
71966;BME280;59836;52.132;5.442;2024-03-02T11:19:50;100127.41;;;10.42;76.22
71966;BME280;59836;52.132;5.442;2024-03-02T11:22:17;100127.34;;;10.47;75.38
71966;BME280;59836;52.132;5.442;2024-03-02T11:24:51;100128.13;;;10.53;74.54
71966;BME280;59836;52.132;5.442;2024-03-02T11:32:58;100123.38;;;10.63;75.01
71966;BME280;59836;52.132;5.442;2024-03-02T11:35:26;100125.00;;;10.65;74.54
71966;BME280;59836;52.132;5.442;2024-03-02T11:37:55;100116.34;;;10.62;73.85
71966;BME280;59836;52.132;5.442;2024-03-02T11:40:22;100110.91;;;10.62;73.71
71966;BME280;59836;52.132;5.442;2024-03-02T11:42:48;100110.34;;;10.66;74.33
71966;BME280;59836;52.132;5.442;2024-03-02T11:45:22;100099.50;;;10.66;73.74
71966;BME280;59836;52.132;5.442;2024-03-02T11:47:58;100106.53;;;10.67;73.46
71966;BME280;59836;52.132;5.442;2024-03-02T11:50:36;100111.38;;;10.70;73.36
71966;BME280;59836;52.132;5.442;2024-03-02T11:53:08;100094.53;;;10.73;71.07
71966;BME280;59836;52.132;5.442;2024-03-02T11:55:37;100095.28;;;10.78;70.53
71966;BME280;59836;52.132;5.442;2024-03-02T11:58:04;100102.03;;;10.81;71.79
71966;BME280;59836;52.132;5.442;2024-03-02T12:00:31;100099.03;;;10.83;72.08
71966;BME280;59836;52.132;5.442;2024-03-02T12:03:03;100099.25;;;10.86;72.65
71966;BME280;59836;52.132;5.442;2024-03-02T12:05:31;100096.50;;;10.91;71.46
71966;BME280;59836;52.132;5.442;2024-03-02T12:07:59;100091.59;;;10.93;71.29
71966;BME280;59836;52.132;5.442;2024-03-02T12:10:26;100082.34;;;10.95;72.32
71966;BME280;59836;52.132;5.442;2024-03-02T12:13:01;100085.78;;;11.00;70.87
71966;BME280;59836;52.132;5.442;2024-03-02T12:15:35;100074.06;;;11.05;71.99
71966;BME280;59836;52.132;5.442;2024-03-02T12:18:05;100072.97;;;11.06;71.09
71966;BME280;59836;52.132;5.442;2024-03-02T12:20:33;100066.66;;;11.11;71.24
71966;BME280;59836;52.132;5.442;2024-03-02T12:23:01;100061.44;;;11.14;71.22
71966;BME280;59836;52.132;5.442;2024-03-02T12:25:29;100066.28;;;11.17;71.62
71966;BME280;59836;52.132;5.442;2024-03-02T12:27:58;100071.72;;;11.17;71.13
71966;BME280;59836;52.132;5.442;2024-03-02T12:30:29;100068.72;;;11.19;71.22
71966;BME280;59836;52.132;5.442;2024-03-02T12:32:55;100063.50;;;11.22;71.25
71966;BME280;59836;52.132;5.442;2024-03-02T12:35:24;100059.69;;;11.23;71.40
71966;BME280;59836;52.132;5.442;2024-03-02T12:37:52;100054.06;;;11.20;71.84
71966;BME280;59836;52.132;5.442;2024-03-02T12:40:19;100062.72;;;11.22;72.27
71966;BME280;59836;52.132;5.442;2024-03-02T12:42:46;100066.78;;;11.19;71.65
71966;BME280;59836;52.132;5.442;2024-03-02T12:45:13;100051.09;;;11.16;71.90
71966;BME280;59836;52.132;5.442;2024-03-02T12:47:41;100046.19;;;11.18;71.89
71966;BME280;59836;52.132;5.442;2024-03-02T12:50:10;100048.91;;;11.18;72.22
71966;BME280;59836;52.132;5.442;2024-03-02T12:52:37;100046.78;;;11.15;71.62
71966;BME280;59836;52.132;5.442;2024-03-02T12:55:04;100037.53;;;11.16;71.32
71966;BME280;59836;52.132;5.442;2024-03-02T12:57:32;100037.53;;;11.16;71.87
71966;BME280;59836;52.132;5.442;2024-03-02T13:00:00;100027.25;;;11.13;71.56
71966;BME280;59836;52.132;5.442;2024-03-02T13:02:30;100027.50;;;11.17;72.05
71966;BME280;59836;52.132;5.442;2024-03-02T13:05:00;100039.66;;;11.19;72.91
71966;BME280;59836;52.132;5.442;2024-03-02T13:07:27;100039.97;;;11.18;71.45
71966;BME280;59836;52.132;5.442;2024-03-02T13:09:55;100034.75;;;11.21;72.08
71966;BME280;59836;52.132;5.442;2024-03-02T13:12:24;100032.53;;;11.23;71.89
71966;BME280;59836;52.132;5.442;2024-03-02T13:14:54;100024.41;;;11.23;71.50
71966;BME280;59836;52.132;5.442;2024-03-02T13:17:20;100024.41;;;11.23;71.63